createdAt,value
2023-01-11T00:00:00.143Z,50.834755
2023-01-11T00:01:00.136Z,50.834766
2023-01-11T00:02:00.229Z,50.834766
2023-01-11T00:03:00.164Z,50.834759
2023-01-11T00:04:00.109Z,50.834763
2023-01-11T00:05:00.215Z,50.834770
2023-01-11T00:06:00.060Z,50.834770
2023-01-11T00:07:00.306Z,50.834774
2023-01-11T00:08:00.070Z,50.834774
2023-01-11T00:09:00.090Z,50.834785
2023-01-11T00:10:00.101Z,50.834778
2023-01-11T00:11:00.065Z,50.834782
2023-01-11T00:12:00.067Z,50.834778
2023-01-11T00:13:00.047Z,50.834793
2023-01-11T00:14:00.084Z,50.834789
2023-01-11T00:15:00.095Z,50.834805
2023-01-11T00:16:00.037Z,50.834782
2023-01-11T00:17:00.166Z,50.834778
2023-01-11T00:18:00.034Z,50.834789
2023-01-11T00:18:59.988Z,50.834782
2023-01-11T00:20:00.030Z,50.834785
2023-01-11T00:21:00.020Z,50.834782
2023-01-11T00:22:00.117Z,50.834785
2023-01-11T00:22:59.997Z,50.834808
2023-01-11T00:23:59.966Z,50.834808
2023-01-11T00:24:59.945Z,50.834789
2023-01-11T00:26:00.063Z,50.834785
2023-01-11T00:26:59.948Z,50.834774
2023-01-11T00:27:59.922Z,50.834801
2023-01-11T00:28:59.918Z,50.834789
2023-01-11T00:29:59.907Z,50.834793
2023-01-11T00:30:59.937Z,50.834793
2023-01-11T00:31:59.918Z,50.834808
2023-01-11T00:32:59.876Z,50.834789
2023-01-11T00:34:00.024Z,50.834808
2023-01-11T00:34:59.895Z,50.834839
2023-01-11T00:35:59.875Z,50.834858
2023-01-11T00:36:59.882Z,50.834835
2023-01-11T00:37:59.973Z,50.834850
2023-01-11T00:38:59.845Z,50.834846
2023-01-11T00:40:00.832Z,50.834854
2023-01-11T00:40:59.825Z,50.834846
2023-01-11T00:41:59.828Z,50.834858
2023-01-11T00:42:59.826Z,50.834846
2023-01-11T00:43:59.821Z,50.834827
2023-01-11T00:44:59.855Z,50.834820
2023-01-11T00:45:59.835Z,50.834820
2023-01-11T00:46:59.788Z,50.834770
2023-01-11T00:47:59.767Z,50.834839
2023-01-11T00:48:59.862Z,50.834805
2023-01-11T00:49:59.785Z,50.834789
2023-01-11T00:50:59.735Z,50.834782
2023-01-11T00:51:59.742Z,50.834801
2023-01-11T00:52:59.793Z,50.834789
2023-01-11T00:53:59.738Z,50.834805
2023-01-11T00:54:59.753Z,50.834797
2023-01-11T00:55:59.707Z,50.834778
2023-01-11T00:56:59.704Z,50.834805
2023-01-11T00:57:59.687Z,50.834801
2023-01-11T00:58:59.686Z,50.834824
2023-01-11T00:59:59.708Z,50.834793
2023-01-11T01:00:59.725Z,50.834812
2023-01-11T01:01:59.665Z,50.834827
2023-01-11T01:02:59.654Z,50.834827
2023-01-11T01:03:59.675Z,50.834831
2023-01-11T01:04:59.681Z,50.834839
2023-01-11T01:05:59.688Z,50.834778
2023-01-11T01:06:59.828Z,50.834812
2023-01-11T01:07:59.596Z,50.834835
2023-01-11T01:08:59.606Z,50.834839
2023-01-11T01:09:59.594Z,50.834835
2023-01-11T01:10:59.623Z,50.834820
2023-01-11T01:11:59.583Z,50.834801
2023-01-11T01:12:59.573Z,50.834843
2023-01-11T01:13:59.574Z,50.834808
2023-01-11T01:14:59.578Z,50.834827
2023-01-11T01:15:59.585Z,50.834812
2023-01-11T01:16:59.580Z,50.834805
2023-01-11T01:17:59.542Z,50.834824
2023-01-11T01:18:59.574Z,50.834827
2023-01-11T01:19:59.527Z,50.834824
2023-01-11T01:20:59.509Z,50.834816
2023-01-11T01:21:59.524Z,50.834835
2023-01-11T01:22:59.477Z,50.834824
2023-01-11T01:23:59.471Z,50.834831
2023-01-11T01:24:59.483Z,50.834839
2023-01-11T01:25:59.462Z,50.834846
2023-01-11T01:26:59.500Z,50.834846
2023-01-11T01:28:00.255Z,50.834839
2023-01-11T01:28:59.433Z,50.834858
2023-01-11T01:29:59.445Z,50.834846
2023-01-11T01:30:59.499Z,50.834846
2023-01-11T01:31:59.424Z,50.834839
2023-01-11T01:32:59.432Z,50.834820
2023-01-11T01:33:59.460Z,50.834820
2023-01-11T01:34:59.431Z,50.834824
2023-01-11T01:35:59.391Z,50.834839
2023-01-11T01:36:59.398Z,50.834854
2023-01-11T01:37:59.382Z,50.834831
2023-01-11T01:38:59.400Z,50.834846
2023-01-11T01:39:59.383Z,50.834881
2023-01-11T01:40:59.338Z,50.834866
2023-01-11T01:41:59.385Z,50.834862
2023-01-11T01:42:59.331Z,50.834881
2023-01-11T01:43:59.374Z,50.834866
2023-01-11T01:44:59.346Z,50.834862
2023-01-11T01:45:59.337Z,50.834881
2023-01-11T01:46:59.329Z,50.834873
2023-01-11T01:47:59.318Z,50.834850
2023-01-11T01:48:59.292Z,50.834843
2023-01-11T01:49:59.270Z,50.834854
2023-01-11T01:50:59.273Z,50.834850
2023-01-11T01:51:59.297Z,50.834831
2023-01-11T01:52:59.281Z,50.834873
2023-01-11T01:53:59.246Z,50.834850
2023-01-11T01:54:59.227Z,50.834854
2023-01-11T01:55:59.228Z,50.834877
2023-01-11T01:56:59.232Z,50.834850
2023-01-11T01:57:59.234Z,50.834850
2023-01-11T01:58:59.216Z,50.834862
2023-01-11T01:59:59.225Z,50.834877
2023-01-11T02:00:59.189Z,50.834877
2023-01-11T02:01:59.228Z,50.834858
2023-01-11T02:02:59.260Z,50.834862
2023-01-11T02:03:59.185Z,50.834866
2023-01-11T02:04:59.166Z,50.834869
2023-01-11T02:05:59.151Z,50.834866
2023-01-11T02:06:59.251Z,50.834854
2023-01-11T02:07:59.185Z,50.834869
2023-01-11T02:08:59.154Z,50.834862
2023-01-11T02:09:59.118Z,50.834877
2023-01-11T02:10:59.105Z,50.834873
2023-01-11T02:11:59.111Z,50.834846
2023-01-11T02:12:59.156Z,50.834873
2023-01-11T02:13:59.113Z,50.834839
2023-01-11T02:14:59.142Z,50.834881
2023-01-11T02:15:59.074Z,50.834885
2023-01-11T02:16:59.052Z,50.834873
2023-01-11T02:17:59.050Z,50.834881
2023-01-11T02:18:59.102Z,50.834881
2023-01-11T02:19:59.097Z,50.834873
2023-01-11T02:20:59.022Z,50.834881
2023-01-11T02:21:59.025Z,50.834869
2023-01-11T02:22:59.014Z,50.834881
2023-01-11T02:23:59.032Z,50.834858
2023-01-11T02:24:59.007Z,50.834869
2023-01-11T02:25:59.016Z,50.834850
2023-01-11T02:26:58.982Z,50.834862
2023-01-11T02:27:58.974Z,50.834873
2023-01-11T02:28:58.995Z,50.834881
2023-01-11T02:29:58.961Z,50.834885
2023-01-11T02:30:59.062Z,50.834877
2023-01-11T02:31:58.991Z,50.834850
2023-01-11T02:32:58.961Z,50.834869
2023-01-11T02:33:58.956Z,50.834873
2023-01-11T02:34:58.925Z,50.834862
2023-01-11T02:35:58.945Z,50.834862
2023-01-11T02:36:58.931Z,50.834862
2023-01-11T02:37:58.920Z,50.834839
2023-01-11T02:38:58.900Z,50.834839
2023-01-11T02:39:58.898Z,50.834846
2023-01-11T02:40:58.943Z,50.834866
2023-01-11T02:41:58.895Z,50.834850
2023-01-11T02:42:58.878Z,50.834858
2023-01-11T02:43:58.863Z,50.834850
2023-01-11T02:44:58.907Z,50.834843
2023-01-11T02:45:58.832Z,50.834854
2023-01-11T02:46:58.908Z,50.834858
2023-01-11T02:47:58.861Z,50.834869
2023-01-11T02:48:58.819Z,50.834862
2023-01-11T02:49:58.834Z,50.834866
2023-01-11T02:50:58.857Z,50.834869
2023-01-11T02:51:58.814Z,50.834866
2023-01-11T02:52:58.863Z,50.834850
2023-01-11T02:53:58.785Z,50.834854
2023-01-11T02:54:58.772Z,50.834850
2023-01-11T02:55:58.773Z,50.834850
2023-01-11T02:56:58.741Z,50.834831
2023-01-11T02:57:58.779Z,50.834846
2023-01-11T02:58:58.735Z,50.834835
2023-01-11T02:59:58.746Z,50.834858
2023-01-11T03:00:58.739Z,50.834850
2023-01-11T03:01:58.853Z,50.834854
2023-01-11T03:02:58.770Z,50.834873
2023-01-11T03:03:58.736Z,50.834862
2023-01-11T03:04:58.696Z,50.834843
2023-01-11T03:05:58.690Z,50.834843
2023-01-11T03:06:58.689Z,50.834843
2023-01-11T03:07:58.697Z,50.834827
2023-01-11T03:08:58.662Z,50.834854
2023-01-11T03:09:58.710Z,50.834850
2023-01-11T03:10:58.652Z,50.834835
2023-01-11T03:11:58.639Z,50.834824
2023-01-11T03:12:58.632Z,50.834858
2023-01-11T03:13:58.686Z,50.834839
2023-01-11T03:14:58.676Z,50.834824
2023-01-11T03:15:58.647Z,50.834824
2023-01-11T03:16:58.688Z,50.834816
2023-01-11T03:17:58.634Z,50.834839
2023-01-11T03:18:58.606Z,50.834824
2023-01-11T03:19:58.590Z,50.834846
2023-01-11T03:20:58.584Z,50.834824
2023-01-11T03:21:58.569Z,50.834808
2023-01-11T03:22:58.565Z,50.834824
2023-01-11T03:23:58.555Z,50.834785
2023-01-11T03:24:58.559Z,50.834785
2023-01-11T03:25:58.557Z,50.834793
2023-01-11T03:26:58.517Z,50.834782
2023-01-11T03:27:58.532Z,50.834782
2023-01-11T03:28:58.512Z,50.834808
2023-01-11T03:29:58.536Z,50.834774
2023-01-11T03:30:58.498Z,50.834793
2023-01-11T03:31:58.530Z,50.834785
2023-01-11T03:32:58.510Z,50.834782
2023-01-11T03:33:58.477Z,50.834785
2023-01-11T03:34:58.506Z,50.834805
2023-01-11T03:35:58.484Z,50.834808
2023-01-11T03:36:58.443Z,50.834812
2023-01-11T03:37:58.453Z,50.834827
2023-01-11T03:38:58.447Z,50.834805
2023-01-11T03:39:58.456Z,50.834808
2023-01-11T03:40:58.440Z,50.834797
2023-01-11T03:41:58.453Z,50.834797
2023-01-11T03:42:58.413Z,50.834763
2023-01-11T03:43:58.432Z,50.834801
2023-01-11T03:44:58.408Z,50.834789
2023-01-11T03:45:58.417Z,50.834770
2023-01-11T03:46:58.470Z,50.834785
2023-01-11T04:08:59.344Z,50.834820
2023-01-11T04:09:59.314Z,50.834793
2023-01-11T04:10:59.281Z,50.834816
2023-01-11T04:11:59.326Z,50.834827
2023-01-11T04:12:59.295Z,50.834812
2023-01-11T04:13:59.256Z,50.834843
2023-01-11T04:14:59.272Z,50.834827
2023-01-11T04:15:59.311Z,50.834824
2023-01-11T04:16:59.302Z,50.834805
2023-01-11T04:17:59.239Z,50.834820
2023-01-11T04:18:59.261Z,50.834812
2023-01-11T04:19:59.236Z,50.834812
2023-01-11T04:20:59.226Z,50.834808
2023-01-11T04:21:59.221Z,50.834812
2023-01-11T04:22:59.198Z,50.834812
2023-01-11T04:23:59.194Z,50.834820
2023-01-11T04:24:59.192Z,50.834816
2023-01-11T04:25:59.178Z,50.834808
2023-01-11T04:26:59.163Z,50.834805
2023-01-11T04:27:59.159Z,50.834808
2023-01-11T04:28:59.173Z,50.834808
2023-01-11T04:29:59.147Z,50.834812
2023-01-11T04:30:59.140Z,50.834797
2023-01-11T04:31:59.122Z,50.834793
2023-01-11T04:32:59.153Z,50.834801
2023-01-11T04:33:59.117Z,50.834812
2023-01-11T04:34:59.110Z,50.834820
2023-01-11T04:35:59.089Z,50.834805
2023-01-11T04:36:59.080Z,50.834816
2023-01-11T04:37:59.080Z,50.834778
2023-01-11T04:38:59.057Z,50.834778
2023-01-11T04:39:59.068Z,50.834789
2023-01-11T04:40:59.108Z,50.834801
2023-01-11T04:41:59.055Z,50.834785
2023-01-11T04:42:59.081Z,50.834797
2023-01-11T04:43:59.027Z,50.834801
2023-01-11T04:44:59.032Z,50.834827
2023-01-11T04:45:59.050Z,50.834827
2023-01-11T04:46:59.021Z,50.834831
2023-01-11T04:47:58.988Z,50.834827
2023-01-11T04:48:59.014Z,50.834824
2023-01-11T04:49:58.971Z,50.834816
2023-01-11T04:50:58.962Z,50.834816
2023-01-11T04:51:58.996Z,50.834812
2023-01-11T04:52:58.950Z,50.834812
2023-01-11T04:53:58.944Z,50.834805
2023-01-11T04:54:58.989Z,50.834789
2023-01-11T04:55:58.927Z,50.834797
2023-01-11T04:56:58.949Z,50.834797
2023-01-11T04:57:58.905Z,50.834824
2023-01-11T04:58:58.898Z,50.834839
2023-01-11T04:59:58.895Z,50.834835
2023-01-11T05:00:58.946Z,50.834805
2023-01-11T05:01:58.907Z,50.834793
2023-01-11T05:02:58.931Z,50.834812
2023-01-11T05:03:58.963Z,50.834797
2023-01-11T05:04:58.863Z,50.834785
2023-01-11T05:05:58.877Z,50.834793
2023-01-11T05:06:58.885Z,50.834801
2023-01-11T05:07:58.854Z,50.834805
2023-01-11T05:08:58.833Z,50.834831
2023-01-11T05:09:58.839Z,50.834816
2023-01-11T05:10:58.809Z,50.834797
2023-01-11T05:11:58.809Z,50.834801
2023-01-11T05:12:58.815Z,50.834808
2023-01-11T05:13:58.791Z,50.834801
2023-01-11T05:14:58.791Z,50.834808
2023-01-11T05:15:58.777Z,50.834805
2023-01-11T05:16:58.792Z,50.834797
2023-01-11T05:17:58.764Z,50.834793
2023-01-11T05:18:58.730Z,50.834797
2023-01-11T05:19:59.772Z,50.834801
2023-01-11T05:20:58.735Z,50.834785
2023-01-11T05:21:58.722Z,50.834793
2023-01-11T05:22:58.731Z,50.834801
2023-01-11T05:23:58.716Z,50.834801
2023-01-11T05:24:58.729Z,50.834808
2023-01-11T05:25:58.706Z,50.834801
2023-01-11T05:26:58.673Z,50.834808
2023-01-11T05:27:58.664Z,50.834801
2023-01-11T05:28:58.691Z,50.834820
2023-01-11T05:29:58.665Z,50.834801
2023-01-11T05:30:58.658Z,50.834801
2023-01-11T05:31:58.694Z,50.834782
2023-01-11T05:32:59.458Z,50.834816
2023-01-11T05:33:59.673Z,50.834824
2023-01-11T05:34:58.645Z,50.834801
2023-01-11T05:35:58.596Z,50.834801
2023-01-11T05:36:58.619Z,50.834766
2023-01-11T05:37:58.600Z,50.834751
2023-01-11T05:38:58.589Z,50.834785
2023-01-11T05:39:58.584Z,50.834774
2023-01-11T05:40:58.599Z,50.834843
2023-01-11T05:41:58.567Z,50.834808
2023-01-11T05:42:59.561Z,50.834805
2023-01-11T05:43:58.566Z,50.834801
2023-01-11T05:44:58.561Z,50.834805
2023-01-11T05:45:58.583Z,50.834785
2023-01-11T05:46:58.568Z,50.834763
2023-01-11T05:47:58.527Z,50.834782
2023-01-11T05:48:58.520Z,50.834782
2023-01-11T05:49:59.498Z,50.834797
2023-01-11T05:51:00.735Z,50.834782
2023-01-11T05:51:58.505Z,50.834785
2023-01-11T05:52:58.537Z,50.834808
2023-01-11T05:53:58.532Z,50.834812
2023-01-11T05:54:58.522Z,50.834793
2023-01-11T05:55:58.471Z,50.834805
2023-01-11T05:56:58.474Z,50.834808
2023-01-11T05:57:58.499Z,50.834801
2023-01-11T05:58:58.451Z,50.834805
2023-01-11T05:59:58.447Z,50.834805
2023-01-11T06:00:58.447Z,50.834805
2023-01-11T06:01:59.501Z,50.834816
2023-01-11T06:02:58.581Z,50.834805
2023-01-11T06:03:58.429Z,50.834778
2023-01-11T06:04:58.464Z,50.834789
2023-01-11T06:05:58.436Z,50.834816
2023-01-11T06:06:58.449Z,50.834827
2023-01-11T06:07:58.399Z,50.834831
2023-01-11T06:08:58.359Z,50.834816
2023-01-11T06:09:58.412Z,50.834789
2023-01-11T06:10:58.399Z,50.834808
2023-01-11T06:11:58.345Z,50.834816
2023-01-11T06:12:58.353Z,50.834789
2023-01-11T06:13:58.355Z,50.834797
2023-01-11T06:14:58.332Z,50.834831
2023-01-11T06:15:58.310Z,50.834812
2023-01-11T06:16:58.357Z,50.834812
2023-01-11T06:17:58.323Z,50.834805
2023-01-11T06:18:58.370Z,50.834797
2023-01-11T06:19:58.285Z,50.834808
2023-01-11T06:20:58.294Z,50.834805
2023-01-11T06:21:58.252Z,50.834827
2023-01-11T06:22:58.252Z,50.834824
2023-01-11T06:23:58.283Z,50.834827
2023-01-11T06:24:58.272Z,50.834820
2023-01-11T06:25:58.241Z,50.834820
2023-01-11T06:26:58.240Z,50.834805
2023-01-11T06:27:58.207Z,50.834820
2023-01-11T06:28:58.220Z,50.834801
2023-01-11T06:29:58.210Z,50.834793
2023-01-11T06:30:59.275Z,50.834782
2023-01-11T06:31:58.271Z,50.834789
2023-01-11T06:32:58.178Z,50.834797
2023-01-11T06:33:58.217Z,50.834812
2023-01-11T06:34:58.182Z,50.834801
2023-01-11T06:35:58.235Z,50.834808
2023-01-11T06:36:58.161Z,50.834816
2023-01-11T06:37:58.844Z,50.834824
2023-01-11T06:38:58.169Z,50.834812
2023-01-11T06:39:58.140Z,50.834797
2023-01-11T06:40:58.153Z,50.834797
2023-01-11T06:41:58.112Z,50.834789
2023-01-11T06:42:58.096Z,50.834801
2023-01-11T06:43:58.126Z,50.834797
2023-01-11T06:44:58.123Z,50.834824
2023-01-11T06:45:58.094Z,50.834824
2023-01-11T06:46:58.106Z,50.834843
2023-01-11T06:47:58.074Z,50.834824
2023-01-11T06:48:58.071Z,50.834820
2023-01-11T06:49:58.055Z,50.834839
2023-01-11T06:50:58.042Z,50.834843
2023-01-11T06:51:58.042Z,50.834843
2023-01-11T06:52:58.042Z,50.834824
2023-01-11T06:53:58.058Z,50.834835
2023-01-11T06:54:58.015Z,50.834839
2023-01-11T06:55:57.989Z,50.834839
2023-01-11T06:56:57.995Z,50.834835
2023-01-11T06:57:57.989Z,50.834812
2023-01-11T06:58:58.018Z,50.834831
2023-01-11T06:59:57.965Z,50.834839
2023-01-11T07:00:57.999Z,50.834824
2023-01-11T07:01:57.968Z,50.834862
2023-01-11T07:02:57.981Z,50.834885
2023-01-11T07:03:57.999Z,50.834881
2023-01-11T07:04:57.937Z,50.834850
2023-01-11T07:05:57.930Z,50.834919
2023-01-11T07:06:57.915Z,50.834900
2023-01-11T07:07:57.922Z,50.834873
2023-01-11T07:08:57.933Z,50.834835
2023-01-11T07:09:57.885Z,50.834824
2023-01-11T07:10:57.946Z,50.834835
2023-01-11T07:11:57.885Z,50.834824
2023-01-11T07:12:57.905Z,50.834835
2023-01-11T07:13:57.891Z,50.834835
2023-01-11T07:14:57.875Z,50.834835
2023-01-11T07:15:57.922Z,50.834846
2023-01-11T07:16:57.852Z,50.834827
2023-01-11T07:17:57.858Z,50.834858
2023-01-11T07:18:57.819Z,50.834839
2023-01-11T07:19:58.832Z,50.834816
2023-01-11T07:20:57.820Z,50.834835
2023-01-11T07:21:57.824Z,50.834831
2023-01-11T07:22:57.792Z,50.834854
2023-01-11T07:23:57.813Z,50.834797
2023-01-11T07:24:58.270Z,50.834850
2023-01-11T07:25:57.827Z,50.834862
2023-01-11T07:26:57.774Z,50.834812
2023-01-11T07:27:57.744Z,50.834824
2023-01-11T07:28:57.757Z,50.834843
2023-01-11T07:29:57.742Z,50.834812
2023-01-11T07:30:59.604Z,50.834820
2023-01-11T07:31:58.723Z,50.834831
2023-01-11T07:32:57.717Z,50.834812
2023-01-11T07:33:57.706Z,50.834824
2023-01-11T07:34:57.716Z,50.834839
2023-01-11T07:35:57.698Z,50.834831
2023-01-11T07:36:57.675Z,50.834812
2023-01-11T07:37:57.674Z,50.834827
2023-01-11T07:38:57.660Z,50.834850
2023-01-11T07:39:57.671Z,50.834843
2023-01-11T07:40:57.655Z,50.834797
2023-01-11T07:41:57.639Z,50.834782
2023-01-11T07:42:57.626Z,50.834789
2023-01-11T07:43:57.620Z,50.834824
2023-01-11T07:44:57.655Z,50.834843
2023-01-11T07:45:57.789Z,50.834808
2023-01-11T07:46:57.664Z,50.834873
2023-01-11T07:47:57.612Z,50.834801
2023-01-11T07:48:57.602Z,50.834835
2023-01-11T07:49:57.593Z,50.834789
2023-01-11T07:50:57.563Z,50.834835
2023-01-11T07:51:57.594Z,50.834816
2023-01-11T07:52:59.777Z,50.834831
2023-01-11T07:53:57.547Z,50.834808
2023-01-11T07:54:57.541Z,50.834801
2023-01-11T07:55:57.589Z,50.834820
2023-01-11T07:56:57.581Z,50.834816
2023-01-11T07:57:57.517Z,50.834805
2023-01-11T07:58:57.520Z,50.834797
2023-01-11T07:59:57.519Z,50.834816
2023-01-11T08:00:57.492Z,50.834812
2023-01-11T08:01:57.527Z,50.834843
2023-01-11T08:02:57.684Z,50.834835
2023-01-11T08:03:57.489Z,50.834808
2023-01-11T08:04:57.516Z,50.834808
2023-01-11T08:05:57.482Z,50.834820
2023-01-11T08:06:57.464Z,50.834805
2023-01-11T08:07:57.538Z,50.834797
2023-01-11T08:08:57.479Z,50.834827
2023-01-11T08:09:57.501Z,50.834858
2023-01-11T08:10:57.452Z,50.834827
2023-01-11T08:11:57.459Z,50.834839
2023-01-11T08:12:57.457Z,50.834858
2023-01-11T08:13:57.427Z,50.834816
2023-01-11T08:14:57.460Z,50.834827
2023-01-11T08:15:57.542Z,50.834831
2023-01-11T08:16:57.416Z,50.834839
2023-01-11T08:17:57.405Z,50.834858
2023-01-11T08:18:57.397Z,50.834816
2023-01-11T08:19:57.369Z,50.834816
2023-01-11T08:20:57.367Z,50.834812
2023-01-11T08:21:57.401Z,50.834793
2023-01-11T08:22:57.360Z,50.834820
2023-01-11T08:23:57.416Z,50.834812
2023-01-11T08:24:57.337Z,50.834816
2023-01-11T08:25:57.392Z,50.834808
2023-01-11T08:26:57.380Z,50.834816
2023-01-11T08:27:57.979Z,50.834827
2023-01-11T08:28:57.302Z,50.834835
2023-01-11T08:29:57.297Z,50.834839
2023-01-11T08:30:57.299Z,50.834846
2023-01-11T08:31:57.315Z,50.834866
2023-01-11T08:32:57.286Z,50.834866
2023-01-11T08:33:57.279Z,50.834873
2023-01-11T08:34:57.296Z,50.834869
2023-01-11T08:35:57.280Z,50.834858
2023-01-11T08:36:57.380Z,50.834854
2023-01-11T08:37:57.209Z,50.834854
2023-01-11T08:38:57.218Z,50.834846
2023-01-11T08:39:57.212Z,50.834846
2023-01-11T08:40:57.217Z,50.834843
2023-01-11T08:41:57.875Z,50.834812
2023-01-11T08:42:57.261Z,50.834805
2023-01-11T08:43:57.170Z,50.834820
2023-01-11T08:44:57.174Z,50.834824
2023-01-11T08:45:57.165Z,50.834827
2023-01-11T08:46:57.135Z,50.834824
2023-01-11T08:47:57.149Z,50.834820
2023-01-11T08:48:57.869Z,50.834827
2023-01-11T08:49:57.172Z,50.834843
2023-01-11T08:50:57.123Z,50.834843
2023-01-11T08:51:57.107Z,50.834843
2023-01-11T08:52:57.382Z,50.834850
2023-01-11T08:53:57.113Z,50.834835
2023-01-11T08:54:57.069Z,50.834858
2023-01-11T08:55:57.096Z,50.834831
2023-01-11T08:56:57.063Z,50.834827
2023-01-11T08:57:57.948Z,50.834839
2023-01-11T08:58:57.070Z,50.834824
2023-01-11T08:59:57.095Z,50.834835
2023-01-11T09:00:57.037Z,50.834846
2023-01-11T09:01:57.089Z,50.834824
2023-01-11T09:02:57.134Z,50.834839
2023-01-11T09:03:57.071Z,50.834831
2023-01-11T09:04:57.069Z,50.834812
2023-01-11T09:05:57.074Z,50.834835
2023-01-11T09:06:57.028Z,50.834839
2023-01-11T09:07:57.021Z,50.834839
2023-01-11T09:08:56.978Z,50.834820
2023-01-11T09:09:57.032Z,50.834843
2023-01-11T09:10:56.978Z,50.834827
2023-01-11T09:11:57.168Z,50.834839
2023-01-11T09:12:56.964Z,50.834835
2023-01-11T09:13:56.978Z,50.834839
2023-01-11T09:14:56.975Z,50.834831
2023-01-11T09:15:57.117Z,50.834835
2023-01-11T09:16:56.958Z,50.834839
2023-01-11T09:17:56.980Z,50.834820
2023-01-11T09:18:56.909Z,50.834843
2023-01-11T09:19:56.928Z,50.834835
2023-01-11T09:20:56.975Z,50.834835
2023-01-11T09:21:56.897Z,50.834843
2023-01-11T09:22:57.045Z,50.834831
2023-01-11T09:23:56.864Z,50.834824
2023-01-11T09:24:56.906Z,50.834824
2023-01-11T09:25:56.914Z,50.834824
2023-01-11T09:26:57.005Z,50.834820
2023-01-11T09:27:56.861Z,50.834831
2023-01-11T09:28:56.884Z,50.834835
2023-01-11T09:29:56.839Z,50.834820
2023-01-11T09:30:56.891Z,50.834843
2023-01-11T09:31:56.853Z,50.834827
2023-01-11T09:32:56.811Z,50.834831
2023-01-11T09:33:56.808Z,50.834843
2023-01-11T09:34:56.844Z,50.834835
2023-01-11T09:35:56.822Z,50.834827
2023-01-11T09:36:56.828Z,50.834835
2023-01-11T09:37:56.836Z,50.834839
2023-01-11T09:38:56.780Z,50.834805
2023-01-11T09:39:56.769Z,50.834824
2023-01-11T09:40:56.774Z,50.834827
2023-01-11T09:41:56.757Z,50.834824
2023-01-11T09:42:56.779Z,50.834869
2023-01-11T09:43:56.836Z,50.834839
2023-01-11T09:44:56.830Z,50.834854
2023-01-11T09:45:57.318Z,50.834827
2023-01-11T09:46:56.844Z,50.834808
2023-01-11T09:47:56.701Z,50.834820
2023-01-11T09:48:56.714Z,50.834831
2023-01-11T09:49:56.725Z,50.834812
2023-01-11T09:50:56.717Z,50.834820
2023-01-11T09:51:59.072Z,50.834824
2023-01-11T09:52:56.667Z,50.834820
2023-01-11T09:53:56.641Z,50.834827
2023-01-11T09:54:56.717Z,50.834824
2023-01-11T09:55:56.706Z,50.834846
2023-01-11T09:56:56.703Z,50.834850
2023-01-11T09:57:56.767Z,50.834824
2023-01-11T09:58:57.435Z,50.834797
2023-01-11T09:59:56.676Z,50.834812
2023-01-11T10:00:56.710Z,50.834793
2023-01-11T10:01:56.586Z,50.834812
2023-01-11T10:02:56.582Z,50.834801
2023-01-11T10:03:56.684Z,50.834801
2023-01-11T10:04:56.620Z,50.834805
2023-01-11T10:05:56.672Z,50.834820
2023-01-11T10:06:56.595Z,50.834808
2023-01-11T10:18:29.448Z,50.834797
2023-01-11T10:18:30.185Z,50.834793
2023-01-11T10:18:31.138Z,50.834793
2023-01-11T10:18:39.290Z,50.834793
2023-01-11T10:19:30.335Z,50.834801
2023-01-11T10:19:58.532Z,50.834808
2023-01-11T10:20:56.452Z,50.834782
2023-01-11T10:21:56.466Z,50.834778
2023-01-11T10:22:56.435Z,50.834751
2023-01-11T10:23:56.443Z,50.834789
2023-01-11T10:24:56.480Z,50.834785
2023-01-11T10:25:56.451Z,50.834789
2023-01-11T10:26:56.498Z,50.834805
2023-01-11T10:27:56.419Z,50.834831
2023-01-11T10:28:56.471Z,50.834839
2023-01-11T10:29:56.478Z,50.834808
2023-01-11T10:30:56.594Z,50.834801
2023-01-11T10:31:57.809Z,50.834774
2023-01-11T10:32:56.363Z,50.834785
2023-01-11T10:33:56.390Z,50.834759
2023-01-11T10:34:56.387Z,50.834793
2023-01-11T10:35:56.403Z,50.834801
2023-01-11T10:36:56.327Z,50.834793
2023-01-11T10:37:56.364Z,50.834801
2023-01-11T10:38:56.348Z,50.834793
2023-01-11T10:39:56.359Z,50.834789
2023-01-11T10:40:56.360Z,50.834801
2023-01-11T10:41:56.357Z,50.834797
2023-01-11T10:43:29.199Z,50.834793
2023-01-11T10:43:56.440Z,50.834797
2023-01-11T10:44:56.409Z,50.834808
2023-01-11T10:45:56.788Z,50.834797
2023-01-11T10:46:56.246Z,50.834805
2023-01-11T10:47:56.283Z,50.834808
2023-01-11T10:48:56.299Z,50.834805
2023-01-11T10:49:56.331Z,50.834785
2023-01-11T10:50:56.276Z,50.834778
2023-01-11T10:51:56.233Z,50.834789
2023-01-11T10:52:56.265Z,50.834766
2023-01-11T10:53:56.236Z,50.834785
2023-01-11T10:54:56.237Z,50.834797
2023-01-11T10:55:56.218Z,50.834782
2023-01-11T10:57:01.659Z,50.834778
2023-01-11T10:58:00.412Z,50.834778
2023-01-11T10:58:57.164Z,50.834789
2023-01-11T10:59:56.197Z,50.834801
2023-01-11T11:00:56.238Z,50.834797
2023-01-11T11:01:56.184Z,50.834797
2023-01-11T11:02:56.180Z,50.834785
2023-01-11T11:03:56.236Z,50.834805
2023-01-11T11:05:29.515Z,50.834789
2023-01-11T11:05:56.742Z,50.834805
2023-01-11T11:06:56.306Z,50.834801
2023-01-11T11:07:57.168Z,50.834785
2023-01-11T11:08:56.135Z,50.834801
2023-01-11T11:09:56.108Z,50.834808
2023-01-11T11:10:56.083Z,50.834789
2023-01-11T11:11:56.106Z,50.834801
2023-01-11T11:12:56.119Z,50.834812
2023-01-11T11:13:56.074Z,50.834801
2023-01-11T11:14:56.072Z,50.834801
2023-01-11T11:15:56.111Z,50.834805
2023-01-11T11:16:56.035Z,50.834789
2023-01-11T11:17:56.004Z,50.834805
2023-01-11T11:18:56.031Z,50.834808
2023-01-11T11:19:55.993Z,50.834797
2023-01-11T11:20:56.075Z,50.834805
2023-01-11T11:21:56.069Z,50.834793
2023-01-11T11:22:55.961Z,50.834805
2023-01-11T11:23:56.077Z,50.834785
2023-01-11T11:24:55.963Z,50.834797
2023-01-11T11:26:28.956Z,50.834793
2023-01-11T11:26:56.415Z,50.834808
2023-01-11T11:27:55.946Z,50.834797
2023-01-11T11:28:55.946Z,50.834808
2023-01-11T11:30:28.875Z,50.834801
2023-01-11T11:31:28.969Z,50.834805
2023-01-11T11:32:29.113Z,50.834801
2023-01-11T11:33:30.173Z,50.834812
2023-01-11T11:34:29.853Z,50.834789
2023-01-11T11:34:57.222Z,50.834808
2023-01-11T11:35:55.916Z,50.834785
2023-01-11T11:36:56.664Z,50.834801
2023-01-11T11:37:57.170Z,50.834789
2023-01-11T11:38:57.483Z,50.834793
2023-01-11T11:39:57.060Z,50.834801
2023-01-11T11:40:55.841Z,50.834808
2023-01-11T11:41:55.827Z,50.834793
2023-01-11T11:42:55.798Z,50.834808
2023-01-11T11:43:56.940Z,50.834801
2023-01-11T11:44:55.807Z,50.834797
2023-01-11T11:45:55.959Z,50.834793
2023-01-11T11:46:55.799Z,50.834770
2023-01-11T11:48:30.894Z,50.834770
2023-01-11T11:48:57.280Z,50.834782
2023-01-11T11:49:56.774Z,50.834801
2023-01-11T11:50:57.759Z,50.834808
2023-01-11T11:51:55.786Z,50.834793